Accueil
METAR-TAF:

METAR-TAF

Aéroports :

East Hampton Airport

East Hampton, New York, États-Unis

latitude: 40-57-34N, longitude: 072-15-07W, altitude: 17 m

Observation

Le bulletin a été fait il y a 30 minutes, à 01:55 UTC
Vent calme
Température -6°C
Humidité 79%
Pression 1021 hPa
Visibilité: 16.1 km
Ciel clair

METAR: KHTO 110155Z AUTO 00000KT 10SM CLR M06/M09 A3015 RMK AO2 T10651087

Heure: 21:25 (02:25 UTC)


TAF: absent

Observations et prévisions météorologiques de plus de 4000 aéroports (messages METAR et TAF).

Les stations disponibles sont représentées par des disques jaunes et rouges sur la carte.

Passer la souris dessus pour voir le nom de la station.

Cliquer dessus pour voir les observations et prévisions météorologiques.

Pour changer de carte: cliquez sur les boutons verts avec une croix noire pour zoomer, sur le bouton vert avec un tiret pour effectuer un zoom arrière, ou sur les flèches vertes pour les cartes adjacentes.


METAR-TAF: